sensor_id;sensor_type;location;lat;lon;timestamp;P1;durP1;ratioP1;P2;durP2;ratioP2
5722;SDS011;2886;49.722;8.612;2022-10-16T00:00:56;3.00;;;1.90;;
5722;SDS011;2886;49.722;8.612;2022-10-16T00:03:22;1.90;;;1.73;;
5722;SDS011;2886;49.722;8.612;2022-10-16T00:05:48;2.53;;;1.53;;
5722;SDS011;2886;49.722;8.612;2022-10-16T00:08:14;1.97;;;1.70;;
5722;SDS011;2886;49.722;8.612;2022-10-16T00:10:40;1.73;;;1.63;;
5722;SDS011;2886;49.722;8.612;2022-10-16T00:13:06;3.33;;;1.50;;
5722;SDS011;2886;49.722;8.612;2022-10-16T00:15:36;2.70;;;1.43;;
5722;SDS011;2886;49.722;8.612;2022-10-16T00:18:02;1.83;;;1.30;;
5722;SDS011;2886;49.722;8.612;2022-10-16T00:20:29;1.10;;;1.00;;
5722;SDS011;2886;49.722;8.612;2022-10-16T00:22:56;1.73;;;1.10;;
5722;SDS011;2886;49.722;8.612;2022-10-16T00:25:22;1.20;;;1.10;;
5722;SDS011;2886;49.722;8.612;2022-10-16T00:27:48;1.10;;;1.00;;
5722;SDS011;2886;49.722;8.612;2022-10-16T00:30:13;9.50;;;1.30;;
5722;SDS011;2886;49.722;8.612;2022-10-16T00:32:39;1.47;;;1.00;;
5722;SDS011;2886;49.722;8.612;2022-10-16T00:35:05;1.67;;;1.10;;
5722;SDS011;2886;49.722;8.612;2022-10-16T00:37:31;1.10;;;1.00;;
5722;SDS011;2886;49.722;8.612;2022-10-16T00:39:57;1.10;;;0.90;;
5722;SDS011;2886;49.722;8.612;2022-10-16T00:42:22;2.63;;;1.00;;
5722;SDS011;2886;49.722;8.612;2022-10-16T00:44:49;1.17;;;0.93;;
5722;SDS011;2886;49.722;8.612;2022-10-16T00:47:22;1.30;;;1.00;;
5722;SDS011;2886;49.722;8.612;2022-10-16T00:49:48;1.17;;;1.07;;
5722;SDS011;2886;49.722;8.612;2022-10-16T00:52:16;0.87;;;0.80;;
5722;SDS011;2886;49.722;8.612;2022-10-16T00:54:43;1.20;;;1.03;;
5722;SDS011;2886;49.722;8.612;2022-10-16T00:57:11;1.20;;;1.00;;
5722;SDS011;2886;49.722;8.612;2022-10-16T00:59:40;1.20;;;1.10;;
5722;SDS011;2886;49.722;8.612;2022-10-16T01:02:08;1.43;;;1.23;;
5722;SDS011;2886;49.722;8.612;2022-10-16T01:04:37;1.40;;;1.30;;
5722;SDS011;2886;49.722;8.612;2022-10-16T01:10:24;3.43;;;1.70;;
5722;SDS011;2886;49.722;8.612;2022-10-16T01:13:01;2.07;;;1.20;;
5722;SDS011;2886;49.722;8.612;2022-10-16T01:21:29;2.67;;;2.10;;
5722;SDS011;2886;49.722;8.612;2022-10-16T01:24:06;2.87;;;2.03;;
5722;SDS011;2886;49.722;8.612;2022-10-16T01:29:42;4.60;;;2.33;;
5722;SDS011;2886;49.722;8.612;2022-10-16T01:32:15;4.90;;;2.70;;
5722;SDS011;2886;49.722;8.612;2022-10-16T01:34:47;3.40;;;2.80;;
5722;SDS011;2886;49.722;8.612;2022-10-16T01:37:21;5.17;;;3.10;;
5722;SDS011;2886;49.722;8.612;2022-10-16T01:39:55;10.10;;;2.90;;
5722;SDS011;2886;49.722;8.612;2022-10-16T01:42:27;4.00;;;2.80;;
5722;SDS011;2886;49.722;8.612;2022-10-16T01:44:59;9.30;;;3.73;;
5722;SDS011;2886;49.722;8.612;2022-10-16T01:47:27;6.20;;;3.07;;
5722;SDS011;2886;49.722;8.612;2022-10-16T01:49:56;4.63;;;3.40;;
5722;SDS011;2886;49.722;8.612;2022-10-16T01:52:25;4.53;;;3.43;;
5722;SDS011;2886;49.722;8.612;2022-10-16T01:54:54;5.00;;;2.80;;
5722;SDS011;2886;49.722;8.612;2022-10-16T01:57:21;5.93;;;3.30;;
5722;SDS011;2886;49.722;8.612;2022-10-16T01:59:51;10.60;;;3.60;;
5722;SDS011;2886;49.722;8.612;2022-10-16T02:02:21;7.23;;;2.73;;
5722;SDS011;2886;49.722;8.612;2022-10-16T02:04:53;5.63;;;3.20;;
5722;SDS011;2886;49.722;8.612;2022-10-16T02:07:24;6.37;;;3.63;;
5722;SDS011;2886;49.722;8.612;2022-10-16T02:09:50;3.37;;;2.97;;
5722;SDS011;2886;49.722;8.612;2022-10-16T02:12:19;3.80;;;2.87;;
5722;SDS011;2886;49.722;8.612;2022-10-16T02:14:51;5.70;;;2.90;;
5722;SDS011;2886;49.722;8.612;2022-10-16T02:17:18;3.70;;;2.80;;
5722;SDS011;2886;49.722;8.612;2022-10-16T02:19:44;3.33;;;2.57;;
5722;SDS011;2886;49.722;8.612;2022-10-16T02:22:17;8.77;;;2.97;;
5722;SDS011;2886;49.722;8.612;2022-10-16T02:32:51;4.07;;;2.50;;
5722;SDS011;2886;49.722;8.612;2022-10-16T02:35:18;4.20;;;2.47;;
5722;SDS011;2886;49.722;8.612;2022-10-16T02:37:46;3.50;;;2.47;;
5722;SDS011;2886;49.722;8.612;2022-10-16T02:40:14;6.00;;;2.60;;
5722;SDS011;2886;49.722;8.612;2022-10-16T02:42:40;3.40;;;2.40;;
5722;SDS011;2886;49.722;8.612;2022-10-16T02:45:07;10.90;;;2.70;;
5722;SDS011;2886;49.722;8.612;2022-10-16T02:47:34;4.43;;;2.27;;
5722;SDS011;2886;49.722;8.612;2022-10-16T02:50:00;8.57;;;2.37;;
5722;SDS011;2886;49.722;8.612;2022-10-16T02:52:25;3.30;;;2.00;;
5722;SDS011;2886;49.722;8.612;2022-10-16T02:54:51;8.10;;;2.37;;
5722;SDS011;2886;49.722;8.612;2022-10-16T02:57:17;3.17;;;2.30;;
5722;SDS011;2886;49.722;8.612;2022-10-16T02:59:43;2.40;;;2.20;;
5722;SDS011;2886;49.722;8.612;2022-10-16T03:02:09;2.20;;;2.00;;
5722;SDS011;2886;49.722;8.612;2022-10-16T03:04:36;2.63;;;2.30;;
5722;SDS011;2886;49.722;8.612;2022-10-16T03:07:02;3.77;;;2.83;;
5722;SDS011;2886;49.722;8.612;2022-10-16T03:09:28;2.60;;;2.07;;
5722;SDS011;2886;49.722;8.612;2022-10-16T03:11:54;2.20;;;2.00;;
5722;SDS011;2886;49.722;8.612;2022-10-16T03:14:19;3.00;;;2.20;;
5722;SDS011;2886;49.722;8.612;2022-10-16T03:16:45;4.40;;;2.07;;
5722;SDS011;2886;49.722;8.612;2022-10-16T03:19:11;3.27;;;2.50;;
5722;SDS011;2886;49.722;8.612;2022-10-16T03:21:37;3.00;;;2.30;;
5722;SDS011;2886;49.722;8.612;2022-10-16T03:24:02;2.80;;;1.87;;
5722;SDS011;2886;49.722;8.612;2022-10-16T03:26:28;2.20;;;2.00;;
5722;SDS011;2886;49.722;8.612;2022-10-16T03:28:54;4.87;;;2.33;;
5722;SDS011;2886;49.722;8.612;2022-10-16T03:31:20;5.53;;;2.17;;
5722;SDS011;2886;49.722;8.612;2022-10-16T03:33:46;3.50;;;2.00;;
5722;SDS011;2886;49.722;8.612;2022-10-16T03:36:12;2.23;;;2.03;;
5722;SDS011;2886;49.722;8.612;2022-10-16T03:38:38;3.20;;;2.00;;
5722;SDS011;2886;49.722;8.612;2022-10-16T03:41:03;2.23;;;2.03;;
5722;SDS011;2886;49.722;8.612;2022-10-16T03:43:29;5.30;;;2.30;;
5722;SDS011;2886;49.722;8.612;2022-10-16T03:45:55;9.93;;;2.43;;
5722;SDS011;2886;49.722;8.612;2022-10-16T03:48:20;4.33;;;2.17;;
5722;SDS011;2886;49.722;8.612;2022-10-16T03:50:46;1.70;;;1.60;;
5722;SDS011;2886;49.722;8.612;2022-10-16T03:53:13;5.17;;;1.80;;
5722;SDS011;2886;49.722;8.612;2022-10-16T03:55:41;11.10;;;2.20;;
5722;SDS011;2886;49.722;8.612;2022-10-16T03:58:07;8.03;;;2.40;;
5722;SDS011;2886;49.722;8.612;2022-10-16T04:00:33;2.17;;;1.97;;
5722;SDS011;2886;49.722;8.612;2022-10-16T04:02:59;2.13;;;1.93;;
5722;SDS011;2886;49.722;8.612;2022-10-16T04:05:25;6.27;;;2.00;;
5722;SDS011;2886;49.722;8.612;2022-10-16T04:07:51;1.50;;;1.40;;
5722;SDS011;2886;49.722;8.612;2022-10-16T04:10:17;2.20;;;2.00;;
5722;SDS011;2886;49.722;8.612;2022-10-16T04:12:44;2.87;;;2.20;;
5722;SDS011;2886;49.722;8.612;2022-10-16T04:15:09;4.40;;;1.93;;
5722;SDS011;2886;49.722;8.612;2022-10-16T04:17:35;2.70;;;1.90;;
5722;SDS011;2886;49.722;8.612;2022-10-16T04:20:01;7.73;;;1.97;;
5722;SDS011;2886;49.722;8.612;2022-10-16T04:22:27;5.43;;;1.90;;
5722;SDS011;2886;49.722;8.612;2022-10-16T04:24:53;2.40;;;1.77;;
5722;SDS011;2886;49.722;8.612;2022-10-16T04:27:19;1.83;;;1.73;;
5722;SDS011;2886;49.722;8.612;2022-10-16T04:29:44;4.13;;;2.23;;
5722;SDS011;2886;49.722;8.612;2022-10-16T04:32:10;2.73;;;2.03;;
5722;SDS011;2886;49.722;8.612;2022-10-16T04:34:36;3.47;;;1.90;;
5722;SDS011;2886;49.722;8.612;2022-10-16T04:37:03;6.30;;;3.10;;
5722;SDS011;2886;49.722;8.612;2022-10-16T04:39:28;2.33;;;2.10;;
5722;SDS011;2886;49.722;8.612;2022-10-16T04:41:54;2.20;;;1.70;;
5722;SDS011;2886;49.722;8.612;2022-10-16T04:44:20;4.03;;;2.20;;
5722;SDS011;2886;49.722;8.612;2022-10-16T04:46:45;2.20;;;1.77;;
5722;SDS011;2886;49.722;8.612;2022-10-16T04:49:11;2.27;;;1.90;;
5722;SDS011;2886;49.722;8.612;2022-10-16T04:51:36;2.10;;;1.90;;
5722;SDS011;2886;49.722;8.612;2022-10-16T04:54:02;10.13;;;2.30;;
5722;SDS011;2886;49.722;8.612;2022-10-16T04:56:28;5.60;;;2.00;;
5722;SDS011;2886;49.722;8.612;2022-10-16T04:58:53;2.10;;;1.70;;
5722;SDS011;2886;49.722;8.612;2022-10-16T05:01:19;4.73;;;2.23;;
5722;SDS011;2886;49.722;8.612;2022-10-16T05:03:45;2.40;;;1.90;;
5722;SDS011;2886;49.722;8.612;2022-10-16T05:06:10;10.90;;;2.47;;
5722;SDS011;2886;49.722;8.612;2022-10-16T05:08:36;4.63;;;2.20;;
5722;SDS011;2886;49.722;8.612;2022-10-16T05:11:02;1.73;;;1.63;;
5722;SDS011;2886;49.722;8.612;2022-10-16T05:13:28;4.30;;;1.80;;
5722;SDS011;2886;49.722;8.612;2022-10-16T05:15:53;3.20;;;2.07;;
5722;SDS011;2886;49.722;8.612;2022-10-16T05:18:19;6.60;;;1.80;;
5722;SDS011;2886;49.722;8.612;2022-10-16T05:20:45;8.80;;;2.00;;
5722;SDS011;2886;49.722;8.612;2022-10-16T05:23:10;4.93;;;1.63;;
5722;SDS011;2886;49.722;8.612;2022-10-16T05:25:36;4.07;;;2.10;;
5722;SDS011;2886;49.722;8.612;2022-10-16T05:28:02;2.70;;;1.70;;
5722;SDS011;2886;49.722;8.612;2022-10-16T05:30:28;3.60;;;1.90;;
5722;SDS011;2886;49.722;8.612;2022-10-16T05:32:54;2.33;;;1.70;;
5722;SDS011;2886;49.722;8.612;2022-10-16T05:35:20;1.80;;;1.70;;
5722;SDS011;2886;49.722;8.612;2022-10-16T05:37:46;2.10;;;1.57;;
5722;SDS011;2886;49.722;8.612;2022-10-16T05:40:13;2.43;;;2.13;;
5722;SDS011;2886;49.722;8.612;2022-10-16T05:42:39;2.37;;;1.67;;
5722;SDS011;2886;49.722;8.612;2022-10-16T05:45:06;2.50;;;1.90;;
5722;SDS011;2886;49.722;8.612;2022-10-16T05:47:33;2.20;;;1.93;;
5722;SDS011;2886;49.722;8.612;2022-10-16T05:49:58;5.87;;;2.10;;
5722;SDS011;2886;49.722;8.612;2022-10-16T05:52:24;2.70;;;1.90;;
5722;SDS011;2886;49.722;8.612;2022-10-16T05:54:51;1.93;;;1.73;;
5722;SDS011;2886;49.722;8.612;2022-10-16T05:57:16;11.93;;;1.83;;
5722;SDS011;2886;49.722;8.612;2022-10-16T05:59:42;2.37;;;2.17;;
5722;SDS011;2886;49.722;8.612;2022-10-16T06:02:11;7.20;;;1.97;;
5722;SDS011;2886;49.722;8.612;2022-10-16T06:04:37;9.77;;;1.97;;
5722;SDS011;2886;49.722;8.612;2022-10-16T06:07:03;3.40;;;1.83;;
5722;SDS011;2886;49.722;8.612;2022-10-16T06:09:29;2.83;;;1.70;;
5722;SDS011;2886;49.722;8.612;2022-10-16T06:11:54;3.20;;;1.90;;
5722;SDS011;2886;49.722;8.612;2022-10-16T06:14:20;3.80;;;2.00;;
5722;SDS011;2886;49.722;8.612;2022-10-16T06:16:46;3.10;;;2.10;;
5722;SDS011;2886;49.722;8.612;2022-10-16T06:19:12;3.63;;;1.93;;
5722;SDS011;2886;49.722;8.612;2022-10-16T06:21:37;1.93;;;1.83;;
5722;SDS011;2886;49.722;8.612;2022-10-16T06:24:03;4.07;;;1.90;;
5722;SDS011;2886;49.722;8.612;2022-10-16T06:26:30;4.53;;;1.93;;
5722;SDS011;2886;49.722;8.612;2022-10-16T06:28:56;2.83;;;1.83;;
5722;SDS011;2886;49.722;8.612;2022-10-16T06:31:23;8.73;;;2.23;;
5722;SDS011;2886;49.722;8.612;2022-10-16T06:33:53;7.33;;;2.20;;
5722;SDS011;2886;49.722;8.612;2022-10-16T06:36:20;2.47;;;1.80;;
5722;SDS011;2886;49.722;8.612;2022-10-16T06:38:46;4.03;;;1.90;;
5722;SDS011;2886;49.722;8.612;2022-10-16T06:41:13;2.60;;;1.63;;
5722;SDS011;2886;49.722;8.612;2022-10-16T06:43:41;3.00;;;1.60;;
5722;SDS011;2886;49.722;8.612;2022-10-16T06:46:07;4.80;;;2.10;;
5722;SDS011;2886;49.722;8.612;2022-10-16T06:48:35;3.70;;;1.50;;
5722;SDS011;2886;49.722;8.612;2022-10-16T06:51:08;2.30;;;1.87;;
5722;SDS011;2886;49.722;8.612;2022-10-16T06:53:35;3.67;;;1.60;;
5722;SDS011;2886;49.722;8.612;2022-10-16T06:56:09;6.40;;;1.77;;
5722;SDS011;2886;49.722;8.612;2022-10-16T06:58:40;1.40;;;1.30;;
5722;SDS011;2886;49.722;8.612;2022-10-16T07:01:07;4.10;;;1.97;;
5722;SDS011;2886;49.722;8.612;2022-10-16T07:03:33;2.50;;;1.90;;
5722;SDS011;2886;49.722;8.612;2022-10-16T07:06:04;3.07;;;1.53;;
5722;SDS011;2886;49.722;8.612;2022-10-16T07:08:32;2.07;;;1.63;;
5722;SDS011;2886;49.722;8.612;2022-10-16T07:11:07;3.30;;;1.90;;
5722;SDS011;2886;49.722;8.612;2022-10-16T07:13:35;1.70;;;1.37;;
5722;SDS011;2886;49.722;8.612;2022-10-16T07:16:05;1.33;;;1.23;;
5722;SDS011;2886;49.722;8.612;2022-10-16T07:18:32;5.07;;;2.80;;
5722;SDS011;2886;49.722;8.612;2022-10-16T07:21:13;1.50;;;1.40;;
5722;SDS011;2886;49.722;8.612;2022-10-16T07:23:44;2.00;;;1.67;;
5722;SDS011;2886;49.722;8.612;2022-10-16T07:26:10;2.10;;;1.90;;
5722;SDS011;2886;49.722;8.612;2022-10-16T07:28:36;9.13;;;1.80;;
5722;SDS011;2886;49.722;8.612;2022-10-16T07:31:09;5.47;;;1.60;;
5722;SDS011;2886;49.722;8.612;2022-10-16T07:33:36;1.80;;;1.70;;
5722;SDS011;2886;49.722;8.612;2022-10-16T07:36:04;6.20;;;1.97;;
5722;SDS011;2886;49.722;8.612;2022-10-16T07:38:30;7.07;;;1.60;;
5722;SDS011;2886;49.722;8.612;2022-10-16T07:41:00;6.37;;;1.73;;
5722;SDS011;2886;49.722;8.612;2022-10-16T07:43:27;4.83;;;1.80;;
5722;SDS011;2886;49.722;8.612;2022-10-16T07:45:53;3.80;;;1.93;;
5722;SDS011;2886;49.722;8.612;2022-10-16T07:48:20;4.70;;;1.60;;
5722;SDS011;2886;49.722;8.612;2022-10-16T07:50:46;1.87;;;1.70;;
5722;SDS011;2886;49.722;8.612;2022-10-16T07:53:12;5.60;;;1.60;;
5722;SDS011;2886;49.722;8.612;2022-10-16T07:55:38;4.43;;;1.90;;
5722;SDS011;2886;49.722;8.612;2022-10-16T07:58:04;2.93;;;1.53;;
5722;SDS011;2886;49.722;8.612;2022-10-16T08:00:30;3.90;;;1.97;;
5722;SDS011;2886;49.722;8.612;2022-10-16T08:02:57;1.73;;;1.63;;
5722;SDS011;2886;49.722;8.612;2022-10-16T08:05:29;4.60;;;1.80;;
5722;SDS011;2886;49.722;8.612;2022-10-16T08:07:57;6.23;;;2.13;;
5722;SDS011;2886;49.722;8.612;2022-10-16T08:10:24;2.40;;;1.60;;
5722;SDS011;2886;49.722;8.612;2022-10-16T08:12:51;6.30;;;1.60;;
5722;SDS011;2886;49.722;8.612;2022-10-16T08:15:18;4.00;;;2.07;;
5722;SDS011;2886;49.722;8.612;2022-10-16T08:17:44;9.03;;;1.90;;
5722;SDS011;2886;49.722;8.612;2022-10-16T08:20:18;4.03;;;1.90;;
5722;SDS011;2886;49.722;8.612;2022-10-16T08:22:44;2.60;;;2.40;;
5722;SDS011;2886;49.722;8.612;2022-10-16T08:25:10;5.47;;;1.93;;
5722;SDS011;2886;49.722;8.612;2022-10-16T08:27:35;2.27;;;2.00;;
5722;SDS011;2886;49.722;8.612;2022-10-16T08:30:01;1.70;;;1.60;;
5722;SDS011;2886;49.722;8.612;2022-10-16T08:32:27;2.90;;;1.90;;
5722;SDS011;2886;49.722;8.612;2022-10-16T08:34:52;5.50;;;1.80;;
5722;SDS011;2886;49.722;8.612;2022-10-16T08:37:18;3.70;;;1.80;;
5722;SDS011;2886;49.722;8.612;2022-10-16T08:39:44;4.57;;;1.90;;
5722;SDS011;2886;49.722;8.612;2022-10-16T08:42:11;4.70;;;2.17;;
5722;SDS011;2886;49.722;8.612;2022-10-16T08:47:44;5.30;;;2.47;;
5722;SDS011;2886;49.722;8.612;2022-10-16T08:50:29;14.20;;;2.57;;
5722;SDS011;2886;49.722;8.612;2022-10-16T08:52:56;11.47;;;2.37;;
5722;SDS011;2886;49.722;8.612;2022-10-16T08:55:40;6.97;;;3.30;;
5722;SDS011;2886;49.722;8.612;2022-10-16T08:58:16;7.63;;;2.77;;
5722;SDS011;2886;49.722;8.612;2022-10-16T09:00:47;6.53;;;2.90;;
5722;SDS011;2886;49.722;8.612;2022-10-16T09:17:11;2.63;;;2.43;;
5722;SDS011;2886;49.722;8.612;2022-10-16T09:19:51;3.80;;;2.47;;
5722;SDS011;2886;49.722;8.612;2022-10-16T09:22:26;17.23;;;2.67;;
5722;SDS011;2886;49.722;8.612;2022-10-16T09:24:54;3.70;;;2.50;;
5722;SDS011;2886;49.722;8.612;2022-10-16T09:27:24;5.20;;;2.20;;
5722;SDS011;2886;49.722;8.612;2022-10-16T09:29:51;4.27;;;2.27;;
5722;SDS011;2886;49.722;8.612;2022-10-16T09:32:19;6.77;;;2.97;;
5722;SDS011;2886;49.722;8.612;2022-10-16T09:34:48;5.90;;;2.33;;
5722;SDS011;2886;49.722;8.612;2022-10-16T09:37:18;1.83;;;1.73;;
5722;SDS011;2886;49.722;8.612;2022-10-16T09:42:26;2.57;;;2.30;;
5722;SDS011;2886;49.722;8.612;2022-10-16T09:44:56;3.00;;;2.37;;
5722;SDS011;2886;49.722;8.612;2022-10-16T09:47:23;2.13;;;1.73;;
5722;SDS011;2886;49.722;8.612;2022-10-16T09:50:02;4.33;;;2.13;;
5722;SDS011;2886;49.722;8.612;2022-10-16T09:52:31;2.00;;;1.80;;
5722;SDS011;2886;49.722;8.612;2022-10-16T09:54:58;2.77;;;1.80;;
5722;SDS011;2886;49.722;8.612;2022-10-16T09:57:26;2.60;;;1.67;;
5722;SDS011;2886;49.722;8.612;2022-10-16T09:59:56;1.63;;;1.20;;
5722;SDS011;2886;49.722;8.612;2022-10-16T10:02:30;2.57;;;1.10;;
5722;SDS011;2886;49.722;8.612;2022-10-16T10:05:00;2.20;;;1.30;;
5722;SDS011;2886;49.722;8.612;2022-10-16T10:07:28;1.63;;;1.37;;
5722;SDS011;2886;49.722;8.612;2022-10-16T10:09:59;1.70;;;1.60;;
5722;SDS011;2886;49.722;8.612;2022-10-16T10:12:29;4.20;;;1.70;;
5722;SDS011;2886;49.722;8.612;2022-10-16T10:15:06;1.77;;;1.50;;
5722;SDS011;2886;49.722;8.612;2022-10-16T10:17:44;2.10;;;1.30;;
5722;SDS011;2886;49.722;8.612;2022-10-16T10:23:01;1.53;;;1.20;;
5722;SDS011;2886;49.722;8.612;2022-10-16T10:31:14;1.87;;;1.40;;
5722;SDS011;2886;49.722;8.612;2022-10-16T10:33:57;2.43;;;1.67;;
5722;SDS011;2886;49.722;8.612;2022-10-16T10:36:34;2.40;;;1.23;;
5722;SDS011;2886;49.722;8.612;2022-10-16T10:44:28;1.23;;;1.13;;
5722;SDS011;2886;49.722;8.612;2022-10-16T10:50:06;1.73;;;1.60;;
5722;SDS011;2886;49.722;8.612;2022-10-16T10:55:49;2.70;;;1.70;;
5722;SDS011;2886;49.722;8.612;2022-10-16T10:58:29;7.97;;;2.10;;
5722;SDS011;2886;49.722;8.612;2022-10-16T11:01:09;2.10;;;1.60;;
5722;SDS011;2886;49.722;8.612;2022-10-16T11:06:17;3.50;;;1.77;;
5722;SDS011;2886;49.722;8.612;2022-10-16T11:08:58;2.00;;;1.50;;
5722;SDS011;2886;49.722;8.612;2022-10-16T11:11:40;1.47;;;1.33;;
5722;SDS011;2886;49.722;8.612;2022-10-16T11:16:52;3.57;;;1.80;;
5722;SDS011;2886;49.722;8.612;2022-10-16T11:19:56;1.80;;;1.70;;
5722;SDS011;2886;49.722;8.612;2022-10-16T11:25:00;2.20;;;2.00;;
5722;SDS011;2886;49.722;8.612;2022-10-16T11:30:26;1.67;;;1.57;;
5722;SDS011;2886;49.722;8.612;2022-10-16T11:38:23;3.60;;;2.20;;
5722;SDS011;2886;49.722;8.612;2022-10-16T11:41:01;4.00;;;1.73;;
5722;SDS011;2886;49.722;8.612;2022-10-16T11:43:43;2.10;;;1.50;;
5722;SDS011;2886;49.722;8.612;2022-10-16T11:46:18;3.00;;;1.87;;
5722;SDS011;2886;49.722;8.612;2022-10-16T11:48:57;3.43;;;1.83;;
5722;SDS011;2886;49.722;8.612;2022-10-16T11:54:18;2.30;;;2.10;;
5722;SDS011;2886;49.722;8.612;2022-10-16T11:56:53;3.83;;;2.00;;
5722;SDS011;2886;49.722;8.612;2022-10-16T12:01:57;1.80;;;1.70;;
5722;SDS011;2886;49.722;8.612;2022-10-16T12:04:53;5.13;;;2.00;;
5722;SDS011;2886;49.722;8.612;2022-10-16T12:10:37;4.10;;;2.20;;
5722;SDS011;2886;49.722;8.612;2022-10-16T12:13:26;2.93;;;1.97;;
5722;SDS011;2886;49.722;8.612;2022-10-16T12:16:39;4.57;;;2.00;;
5722;SDS011;2886;49.722;8.612;2022-10-16T12:18:40;4.43;;;2.00;;
5722;SDS011;2886;49.722;8.612;2022-10-16T12:21:11;3.13;;;1.80;;
5722;SDS011;2886;49.722;8.612;2022-10-16T12:23:47;5.37;;;2.33;;
5722;SDS011;2886;49.722;8.612;2022-10-16T12:26:34;3.73;;;1.90;;
5722;SDS011;2886;49.722;8.612;2022-10-16T12:31:45;2.90;;;1.97;;
5722;SDS011;2886;49.722;8.612;2022-10-16T12:37:30;3.13;;;1.80;;
5722;SDS011;2886;49.722;8.612;2022-10-16T12:39:58;3.40;;;2.20;;
5722;SDS011;2886;49.722;8.612;2022-10-16T12:44:55;2.20;;;1.90;;
5722;SDS011;2886;49.722;8.612;2022-10-16T12:47:22;2.23;;;2.03;;
5722;SDS011;2886;49.722;8.612;2022-10-16T12:49:57;5.50;;;2.83;;
5722;SDS011;2886;49.722;8.612;2022-10-16T12:52:44;4.07;;;3.20;;
5722;SDS011;2886;49.722;8.612;2022-10-16T12:55:15;3.17;;;2.07;;
5722;SDS011;2886;49.722;8.612;2022-10-16T12:58:00;3.03;;;2.63;;
5722;SDS011;2886;49.722;8.612;2022-10-16T13:12:52;2.50;;;2.30;;
5722;SDS011;2886;49.722;8.612;2022-10-16T13:15:31;2.43;;;2.20;;
5722;SDS011;2886;49.722;8.612;2022-10-16T13:18:05;3.70;;;2.33;;
5722;SDS011;2886;49.722;8.612;2022-10-16T13:20:50;5.13;;;2.23;;
5722;SDS011;2886;49.722;8.612;2022-10-16T13:28:47;2.27;;;1.93;;
5722;SDS011;2886;49.722;8.612;2022-10-16T13:31:20;2.57;;;2.00;;
5722;SDS011;2886;49.722;8.612;2022-10-16T13:33:53;12.63;;;3.60;;
5722;SDS011;2886;49.722;8.612;2022-10-16T13:36:24;4.13;;;2.30;;
5722;SDS011;2886;49.722;8.612;2022-10-16T13:39:24;2.57;;;2.20;;
5722;SDS011;2886;49.722;8.612;2022-10-16T13:42:01;7.77;;;2.40;;
5722;SDS011;2886;49.722;8.612;2022-10-16T13:44:42;4.43;;;2.10;;
5722;SDS011;2886;49.722;8.612;2022-10-16T13:47:17;1.93;;;1.80;;
5722;SDS011;2886;49.722;8.612;2022-10-16T13:50:00;3.67;;;2.30;;
5722;SDS011;2886;49.722;8.612;2022-10-16T13:52:27;5.10;;;2.60;;
5722;SDS011;2886;49.722;8.612;2022-10-16T13:54:53;4.70;;;2.20;;
5722;SDS011;2886;49.722;8.612;2022-10-16T13:57:21;3.43;;;2.10;;
5722;SDS011;2886;49.722;8.612;2022-10-16T13:59:49;2.57;;;1.97;;
5722;SDS011;2886;49.722;8.612;2022-10-16T14:05:00;2.80;;;1.77;;
5722;SDS011;2886;49.722;8.612;2022-10-16T14:07:30;4.00;;;2.57;;
5722;SDS011;2886;49.722;8.612;2022-10-16T14:10:02;3.07;;;1.80;;
5722;SDS011;2886;49.722;8.612;2022-10-16T14:12:30;2.90;;;2.13;;
5722;SDS011;2886;49.722;8.612;2022-10-16T14:14:56;2.07;;;1.87;;
5722;SDS011;2886;49.722;8.612;2022-10-16T14:19:52;3.23;;;1.83;;
5722;SDS011;2886;49.722;8.612;2022-10-16T14:22:36;3.40;;;2.00;;
5722;SDS011;2886;49.722;8.612;2022-10-16T14:30:35;2.97;;;2.63;;
5722;SDS011;2886;49.722;8.612;2022-10-16T14:33:05;3.40;;;2.00;;
5722;SDS011;2886;49.722;8.612;2022-10-16T14:35:45;2.77;;;2.27;;
5722;SDS011;2886;49.722;8.612;2022-10-16T14:38:17;5.93;;;2.10;;
5722;SDS011;2886;49.722;8.612;2022-10-16T14:40:46;7.83;;;2.10;;
5722;SDS011;2886;49.722;8.612;2022-10-16T14:43:16;4.43;;;2.10;;
5722;SDS011;2886;49.722;8.612;2022-10-16T14:45:50;2.30;;;2.10;;
5722;SDS011;2886;49.722;8.612;2022-10-16T14:48:19;5.13;;;2.30;;
5722;SDS011;2886;49.722;8.612;2022-10-16T14:50:45;5.10;;;2.20;;
5722;SDS011;2886;49.722;8.612;2022-10-16T14:53:12;5.40;;;2.20;;
5722;SDS011;2886;49.722;8.612;2022-10-16T14:55:38;4.33;;;1.90;;
5722;SDS011;2886;49.722;8.612;2022-10-16T14:58:05;2.37;;;2.17;;
5722;SDS011;2886;49.722;8.612;2022-10-16T15:00:34;2.07;;;1.90;;
5722;SDS011;2886;49.722;8.612;2022-10-16T15:03:00;4.53;;;2.33;;
5722;SDS011;2886;49.722;8.612;2022-10-16T15:05:26;2.83;;;1.87;;
5722;SDS011;2886;49.722;8.612;2022-10-16T15:07:53;3.73;;;1.93;;
5722;SDS011;2886;49.722;8.612;2022-10-16T15:10:20;2.60;;;1.97;;
5722;SDS011;2886;49.722;8.612;2022-10-16T15:12:48;2.27;;;2.07;;
5722;SDS011;2886;49.722;8.612;2022-10-16T15:17:49;2.20;;;1.83;;
5722;SDS011;2886;49.722;8.612;2022-10-16T15:20:18;2.00;;;1.80;;
5722;SDS011;2886;49.722;8.612;2022-10-16T15:22:45;2.60;;;1.80;;
5722;SDS011;2886;49.722;8.612;2022-10-16T15:25:33;2.00;;;1.80;;
5722;SDS011;2886;49.722;8.612;2022-10-16T15:28:03;3.33;;;1.70;;
5722;SDS011;2886;49.722;8.612;2022-10-16T15:30:29;1.50;;;1.40;;
5722;SDS011;2886;49.722;8.612;2022-10-16T15:32:55;4.00;;;2.30;;
5722;SDS011;2886;49.722;8.612;2022-10-16T15:35:21;2.97;;;2.37;;
5722;SDS011;2886;49.722;8.612;2022-10-16T15:37:47;6.10;;;2.30;;
5722;SDS011;2886;49.722;8.612;2022-10-16T15:40:14;3.03;;;2.20;;
5722;SDS011;2886;49.722;8.612;2022-10-16T15:42:41;5.57;;;2.40;;
5722;SDS011;2886;49.722;8.612;2022-10-16T15:45:08;2.63;;;1.90;;
5722;SDS011;2886;49.722;8.612;2022-10-16T15:47:34;4.70;;;2.00;;
5722;SDS011;2886;49.722;8.612;2022-10-16T15:50:00;1.70;;;1.60;;
5722;SDS011;2886;49.722;8.612;2022-10-16T15:52:26;4.00;;;2.00;;
5722;SDS011;2886;49.722;8.612;2022-10-16T15:54:54;3.87;;;1.83;;
5722;SDS011;2886;49.722;8.612;2022-10-16T15:57:20;8.17;;;2.30;;
5722;SDS011;2886;49.722;8.612;2022-10-16T15:59:46;13.43;;;2.40;;
5722;SDS011;2886;49.722;8.612;2022-10-16T16:02:11;5.33;;;2.50;;
5722;SDS011;2886;49.722;8.612;2022-10-16T16:04:37;2.33;;;1.80;;
5722;SDS011;2886;49.722;8.612;2022-10-16T16:07:03;4.53;;;2.10;;
5722;SDS011;2886;49.722;8.612;2022-10-16T16:09:29;4.40;;;1.93;;
5722;SDS011;2886;49.722;8.612;2022-10-16T16:11:55;3.43;;;2.87;;
5722;SDS011;2886;49.722;8.612;2022-10-16T16:14:20;5.20;;;2.27;;
5722;SDS011;2886;49.722;8.612;2022-10-16T16:16:46;2.10;;;1.90;;
5722;SDS011;2886;49.722;8.612;2022-10-16T16:19:12;6.83;;;2.60;;
5722;SDS011;2886;49.722;8.612;2022-10-16T16:21:38;2.63;;;2.20;;
5722;SDS011;2886;49.722;8.612;2022-10-16T16:24:04;3.63;;;2.60;;
5722;SDS011;2886;49.722;8.612;2022-10-16T16:26:33;2.93;;;2.30;;
5722;SDS011;2886;49.722;8.612;2022-10-16T16:29:03;4.40;;;2.40;;
5722;SDS011;2886;49.722;8.612;2022-10-16T16:31:29;3.60;;;2.50;;
5722;SDS011;2886;49.722;8.612;2022-10-16T16:33:56;2.97;;;2.33;;
5722;SDS011;2886;49.722;8.612;2022-10-16T16:36:23;4.67;;;2.30;;
5722;SDS011;2886;49.722;8.612;2022-10-16T16:38:50;4.50;;;2.60;;
5722;SDS011;2886;49.722;8.612;2022-10-16T16:41:17;4.40;;;2.57;;
5722;SDS011;2886;49.722;8.612;2022-10-16T16:43:50;5.33;;;2.07;;
5722;SDS011;2886;49.722;8.612;2022-10-16T16:46:16;2.33;;;1.90;;
5722;SDS011;2886;49.722;8.612;2022-10-16T16:48:43;12.33;;;2.50;;
5722;SDS011;2886;49.722;8.612;2022-10-16T16:51:11;4.00;;;2.47;;
5722;SDS011;2886;49.722;8.612;2022-10-16T16:53:40;10.50;;;3.10;;
5722;SDS011;2886;49.722;8.612;2022-10-16T16:56:13;4.00;;;2.57;;
5722;SDS011;2886;49.722;8.612;2022-10-16T16:58:40;7.27;;;2.77;;
5722;SDS011;2886;49.722;8.612;2022-10-16T17:01:07;8.90;;;3.77;;
5722;SDS011;2886;49.722;8.612;2022-10-16T17:03:35;3.70;;;2.90;;
5722;SDS011;2886;49.722;8.612;2022-10-16T17:08:29;8.47;;;2.17;;
5722;SDS011;2886;49.722;8.612;2022-10-16T17:10:55;7.90;;;3.40;;
5722;SDS011;2886;49.722;8.612;2022-10-16T17:13:25;8.33;;;3.60;;
5722;SDS011;2886;49.722;8.612;2022-10-16T17:15:52;3.43;;;2.80;;
5722;SDS011;2886;49.722;8.612;2022-10-16T17:18:19;2.67;;;2.20;;
5722;SDS011;2886;49.722;8.612;2022-10-16T17:20:46;3.73;;;2.30;;
5722;SDS011;2886;49.722;8.612;2022-10-16T17:23:13;2.70;;;2.43;;
5722;SDS011;2886;49.722;8.612;2022-10-16T17:25:40;3.80;;;2.60;;
5722;SDS011;2886;49.722;8.612;2022-10-16T17:28:07;3.47;;;2.40;;
5722;SDS011;2886;49.722;8.612;2022-10-16T17:30:35;3.77;;;2.10;;
5722;SDS011;2886;49.722;8.612;2022-10-16T17:33:02;5.53;;;2.60;;